< < Back
Terminal Aerodrome Forecast


Current Version              Previous Versions:   1  2  3  4  5  6  7  8  9  

Terminal Aerodrome Forecast

149
FTUS44 KOHX 061120
TAFBNA
TAF
KBNA 061120Z 0612/0712 00000KT 6SM BR FEW050
      TEMPO 0612/0613 3SM BR BKN003
     FM061400 23006KT P6SM SCT050 SCT150
     FM070100 20004KT P6SM BKN150=

Latest METAR

444
SAUS70 KWBC 061400 RRD
MTRBNA
METAR KBNA 061353Z 00000KT 10SM BKN010 24/22 A3015 RMK AO2 SLP205
T02440222


USA.gov is the U.S. government's official web portal to all federal, state and local government web resources and services.